Braxton, Indiana
Current Conditions -  °F | °C
As of 3:15 PM on Thursday 18 Dec 2014 (Local Time) from KHNB Reporting Station
Overcast Overcast  
Wind Chill: 26°   Ceiling: 5000
Heat Index: 32°   Visibility: 7mi
Dew Point: 23°   Wind: 6mph
Humidity: 69%   Direction: 40°NE
Pressure: 30.23"   Gusts: NA
Location:  38.5454°N, 86.4243°W
Report Text: KHNB 182015Z AUTO 04005KT 7SM SCT018 OVC050 00/M05 A3023 RMK AO1
Loading
Personal Weather Stations






























Interactive Weather Map New forecast layout! Learn more

10-Day Weather Forecast

Advertisements
Track Severe Weather on mobile